Etusivu
METAR-TAF:

METAR-TAF

Lentoasemat :

Biskra, Algeria

Leveyspiiri: 34-48N, Pituuspiiri: 005-44E, korkeus merenpinnasta: 87 m

Tämänhetkinen sää

Tämä raportti tehtiin 18 minuuttia sitten, kello 01.00 UTC
Tuuli 21 kn idästä/kaakosta puuskistuen 34 kn:hen
Lämpötila 29°C
Kosteus 25%
Ilmanpaine 1012 hPa
Näkyvyys: 6000 m

METAR: DAUB 180100Z 11021G34KT 6000 NSC 29/07 Q1012

Aika: 02:18 (01:18 UTC)

Sääennuste

Tämä raportti tehtiin 14 tuntia ja 18 minuuttia sitten, kello 11.00 UTC
Ennuste voimassa 17. päivästä klo 12 UTC - 18. päivään klo 12 UTC
Tuuli 10 kn lännestä/lounaasta
Näkyvyys 10 km tai enemmän
Muutamia pilviä 4000 ft:n korkeudessa
Todennäköisyys 30% :
Ajoittain
17. päivästä klo 12 UTC - 17. päivään klo 20 UTC
Muutamia pilviä 3300 ft:n korkeudessa, Kasvava cumulus-pilvi.
Tulossa
17. päivästä klo 14 UTC - 17. päivään klo 16 UTC
Tuuli 12 kn idästä/kaakosta

TAF: DAUB 171100Z 1712/1812 24010KT 9999 FEW040 PROB30 TEMPO 1712/1720 FEW033TCU BECMG 1714/1716 11012KT

Säähavainnot ja -ennusteet yli 4000 lentoasemalta (METAR- ja TAF-raportit).

Käytössä olevat sääasemat on merkitty karttaan keltaisilla ja punaisilla pisteillä.

Aseta hiiri pisteen päälle nähdäksesi sääaseman nimen.

Klikkaa sitten nähdäksesi säähavainnot ja -ennusteet.

Kartan vaihtaminen: klikkaa mustalla rastilla varustettuja vihreitä pisteitä, niin voit zoomata sisään; viivalla varustettua vihreää pistettä, niin voit zoomata ulos tai vihreitä nuolia, niin pääset viereisille kartoille.


METAR-TAF: